Time;durP1;ratioP1;P1;durP2;ratioP2;P2;SDS_P1;SDS_P2;PMS_P1;PMS_P2;Temp;Humidity;BMP_temperature;BMP_pressure;BME280_temperature;BME280_humidity;BME280_pressure;Samples;Min_cycle;Max_cycle;Signal;HPM_P1;HPM_P2
2023/05/25 00:01:26;;;;;;;12.70;9.73;;;;;;;;;;5073788;28;20210;-56
2023/05/25 00:03:54;;;;;;;13.77;8.77;;;;;;;;;;5073894;28;20302;-56
2023/05/25 00:06:20;;;;;;;10.20;8.77;;;;;;;;;;5073714;28;20265;-56
2023/05/25 00:08:47;;;;;;;12.73;8.60;;;;;;;;;;5073711;28;20234;-56
2023/05/25 00:11:13;;;;;;;8.97;8.03;;;;;;;;;;5073464;28;20227;-56
2023/05/25 00:13:39;;;;;;;12.33;8.00;;;;;;;;;;5073507;28;20207;-56
2023/05/25 00:16:07;;;;;;;9.23;7.63;;;;;;;;;;5073629;28;20199;-56
2023/05/25 00:18:36;;;;;;;10.50;7.53;;;;;;;;;;5073430;28;20217;-56
2023/05/25 00:21:05;;;;;;;13.77;8.10;;;;;;;;;;5073366;28;20670;-56
2023/05/25 00:23:31;;;;;;;12.13;8.27;;;;;;;;;;5073087;28;20289;-56
2023/05/25 00:25:57;;;;;;;9.13;7.17;;;;;;;;;;5073256;28;20203;-56
2023/05/25 00:28:23;;;;;;;9.33;7.30;;;;;;;;;;5072670;28;20207;-56
2023/05/25 00:30:49;;;;;;;9.47;7.43;;;;;;;;;;5073275;28;20318;-56
2023/05/25 00:33:17;;;;;;;8.63;6.47;;;;;;;;;;5073217;28;20282;-56
2023/05/25 00:35:43;;;;;;;10.53;7.30;;;;;;;;;;5073007;28;20204;-56
2023/05/25 00:38:11;;;;;;;10.20;7.97;;;;;;;;;;5073161;28;20549;-56
2023/05/25 00:40:39;;;;;;;9.63;6.97;;;;;;;;;;5072882;28;20206;-55
2023/05/25 00:43:05;;;;;;;8.57;6.90;;;;;;;;;;5073113;28;20199;-55
2023/05/25 00:45:31;;;;;;;7.53;6.47;;;;;;;;;;5072824;28;20207;-56
2023/05/25 00:47:58;;;;;;;11.47;7.30;;;;;;;;;;5072921;28;20204;-56
2023/05/25 00:50:33;;;;;;;9.23;6.70;;;;;;;;;;5072630;28;20639;-55
2023/05/25 00:53:00;;;;;;;9.93;6.00;;;;;;;;;;5072874;28;20264;-56
2023/05/25 00:55:28;;;;;;;8.90;6.93;;;;;;;;;;5072520;28;20299;-56
2023/05/25 00:57:56;;;;;;;7.43;6.30;;;;;;;;;;5072740;28;20265;-58
2023/05/25 01:00:22;;;;;;;10.77;7.13;;;;;;;;;;5072633;28;20249;-56
2023/05/25 01:02:51;;;;;;;10.43;7.30;;;;;;;;;;5072732;28;20199;-56
2023/05/25 01:05:18;;;;;;;9.00;6.93;;;;;;;;;;5072515;28;20215;-55
2023/05/25 01:07:45;;;;;;;10.03;6.50;;;;;;;;;;5072422;28;20699;-55
2023/05/25 01:10:13;;;;;;;11.07;7.57;;;;;;;;;;5072315;28;20251;-56
2023/05/25 01:12:41;;;;;;;8.53;7.03;;;;;;;;;;5072345;28;20219;-56
2023/05/25 01:15:08;;;;;;;8.77;6.77;;;;;;;;;;5072501;28;20202;-56
2023/05/25 01:17:36;;;;;;;8.30;6.63;;;;;;;;;;5072384;28;20196;-56
2023/05/25 01:20:05;;;;;;;8.77;6.57;;;;;;;;;;5072251;28;20202;-56
2023/05/25 01:22:37;;;;;;;8.93;6.90;;;;;;;;;;5072014;28;20309;-56
2023/05/25 01:25:06;;;;;;;9.67;6.73;;;;;;;;;;5072282;28;20207;-56
2023/05/25 01:27:37;;;;;;;9.10;6.30;;;;;;;;;;5072125;28;20242;-56
2023/05/25 01:30:05;;;;;;;11.00;7.40;;;;;;;;;;5072261;28;20226;-56
2023/05/25 01:32:31;;;;;;;10.80;6.63;;;;;;;;;;5072039;28;20195;-56
2023/05/25 01:34:58;;;;;;;12.40;6.73;;;;;;;;;;5072147;28;20203;-56
2023/05/25 01:37:25;;;;;;;9.07;6.80;;;;;;;;;;5071987;28;20206;-56
2023/05/25 01:39:53;;;;;;;12.70;7.03;;;;;;;;;;5071300;28;20195;-55
2023/05/25 01:42:19;;;;;;;8.50;6.20;;;;;;;;;;5072174;28;20245;-56
2023/05/25 01:44:45;;;;;;;9.60;6.90;;;;;;;;;;5071977;28;20716;-55
2023/05/25 01:47:15;;;;;;;8.83;6.23;;;;;;;;;;5072195;28;20206;-55
2023/05/25 01:49:43;;;;;;;10.63;7.10;;;;;;;;;;5071871;28;20203;-55
2023/05/25 01:52:15;;;;;;;8.17;6.50;;;;;;;;;;5072003;28;20245;-55
2023/05/25 01:54:44;;;;;;;8.33;7.10;;;;;;;;;;5071731;28;20210;-54
2023/05/25 01:57:13;;;;;;;10.90;7.43;;;;;;;;;;5071906;28;20200;-55
2023/05/25 01:59:41;;;;;;;11.97;7.70;;;;;;;;;;5071758;28;20599;-55
2023/05/25 02:02:07;;;;;;;11.80;8.33;;;;;;;;;;5072021;28;20678;-54
2023/05/25 02:04:33;;;;;;;11.37;8.60;;;;;;;;;;5071705;28;20701;-55
2023/05/25 02:06:59;;;;;;;10.43;7.93;;;;;;;;;;5071952;28;20195;-55
2023/05/25 02:09:25;;;;;;;11.23;8.10;;;;;;;;;;5071693;28;20249;-55
2023/05/25 02:11:51;;;;;;;12.97;8.80;;;;;;;;;;5071689;28;20689;-55
2023/05/25 02:14:18;;;;;;;11.43;8.40;;;;;;;;;;5071858;28;20279;-55
2023/05/25 02:16:44;;;;;;;12.00;9.77;;;;;;;;;;5071591;28;20203;-55
2023/05/25 02:19:11;;;;;;;11.60;8.97;;;;;;;;;;5071689;28;20265;-55
2023/05/25 02:21:37;;;;;;;14.57;9.90;;;;;;;;;;5071651;28;20191;-55
2023/05/25 02:24:03;;;;;;;15.13;9.97;;;;;;;;;;5071567;28;20341;-55
2023/05/25 02:26:29;;;;;;;12.03;9.07;;;;;;;;;;5071475;28;20233;-55
2023/05/25 02:28:55;;;;;;;13.27;9.90;;;;;;;;;;5071504;28;20242;-55
2023/05/25 02:31:22;;;;;;;11.43;9.27;;;;;;;;;;5071492;28;20258;-55
2023/05/25 02:33:48;;;;;;;11.73;9.03;;;;;;;;;;5071511;28;20204;-54
2023/05/25 02:36:15;;;;;;;11.77;9.67;;;;;;;;;;5071523;28;20287;-55
2023/05/25 02:38:41;;;;;;;12.57;9.63;;;;;;;;;;5071354;28;20203;-55
2023/05/25 02:41:07;;;;;;;14.13;9.87;;;;;;;;;;5071485;28;20199;-55
2023/05/25 02:43:33;;;;;;;12.67;9.60;;;;;;;;;;5071326;28;20199;-55
2023/05/25 02:45:59;;;;;;;14.27;10.03;;;;;;;;;;5071426;28;20199;-55
2023/05/25 02:48:26;;;;;;;12.23;9.50;;;;;;;;;;5071402;28;20199;-55
2023/05/25 02:50:52;;;;;;;13.23;9.70;;;;;;;;;;5071719;28;20227;-55
2023/05/25 02:53:18;;;;;;;13.87;9.20;;;;;;;;;;5075172;28;20282;-54
2023/05/25 02:55:44;;;;;;;12.20;8.93;;;;;;;;;;5074854;28;20199;-55
2023/05/25 02:58:10;;;;;;;11.77;7.40;;;;;;;;;;5075035;28;20581;-55
2023/05/25 03:00:36;;;;;;;9.80;7.83;;;;;;;;;;5074943;28;20192;-55
2023/05/25 03:03:02;;;;;;;9.97;8.00;;;;;;;;;;5075016;28;20199;-55
2023/05/25 03:05:34;;;;;;;14.20;8.03;;;;;;;;;;5074760;28;20219;-54
2023/05/25 03:08:00;;;;;;;10.87;7.97;;;;;;;;;;5074938;28;20208;-54
2023/05/25 03:10:26;;;;;;;9.53;8.17;;;;;;;;;;5074624;28;20219;-55
2023/05/25 03:12:52;;;;;;;10.10;7.73;;;;;;;;;;5074751;28;20196;-55
2023/05/25 03:15:18;;;;;;;12.00;7.90;;;;;;;;;;5074751;28;20661;-55
2023/05/25 03:17:44;;;;;;;13.60;8.10;;;;;;;;;;5074517;28;20242;-55
2023/05/25 03:20:10;;;;;;;11.97;8.13;;;;;;;;;;5074656;28;20188;-55
2023/05/25 03:22:38;;;;;;;13.90;8.93;;;;;;;;;;5074372;28;20227;-55
2023/05/25 03:25:04;;;;;;;14.27;8.27;;;;;;;;;;5074144;28;20199;-55
2023/05/25 03:27:30;;;;;;;11.50;7.53;;;;;;;;;;5074317;28;20206;-55
2023/05/25 03:29:56;;;;;;;16.87;8.77;;;;;;;;;;5073946;28;20227;-55
2023/05/25 03:32:22;;;;;;;12.37;8.27;;;;;;;;;;5073692;28;20791;-55
2023/05/25 03:34:48;;;;;;;13.97;9.37;;;;;;;;;;5073762;28;20261;-55
2023/05/25 03:37:14;;;;;;;13.23;8.17;;;;;;;;;;5074260;28;20203;-55
2023/05/25 03:39:42;;;;;;;11.27;8.17;;;;;;;;;;5074105;28;20202;-55
2023/05/25 03:42:08;;;;;;;10.57;8.43;;;;;;;;;;5074342;28;20204;-55
2023/05/25 03:44:34;;;;;;;15.60;10.67;;;;;;;;;;5073781;28;20245;-56
2023/05/25 03:47:00;;;;;;;12.33;9.20;;;;;;;;;;5074017;28;20727;-56
2023/05/25 03:49:26;;;;;;;14.77;9.20;;;;;;;;;;5074128;28;20192;-56
2023/05/25 03:51:52;;;;;;;12.27;8.67;;;;;;;;;;5073803;28;20314;-56
2023/05/25 03:54:18;;;;;;;13.70;8.97;;;;;;;;;;5074029;28;20294;-56
2023/05/25 03:56:46;;;;;;;17.33;9.40;;;;;;;;;;5073842;28;20299;-56
2023/05/25 03:59:12;;;;;;;12.13;8.10;;;;;;;;;;5074005;28;20927;-56
2023/05/25 04:01:38;;;;;;;10.53;7.80;;;;;;;;;;5073803;28;20541;-56
2023/05/25 04:04:04;;;;;;;9.40;7.60;;;;;;;;;;5073144;28;20216;-56
2023/05/25 04:06:30;;;;;;;13.03;8.27;;;;;;;;;;5073764;28;20287;-56
2023/05/25 04:08:56;;;;;;;10.80;7.20;;;;;;;;;;5073676;28;20226;-56
2023/05/25 04:11:24;;;;;;;11.63;7.53;;;;;;;;;;5073625;28;20247;-56
2023/05/25 04:13:51;;;;;;;14.40;8.33;;;;;;;;;;5073601;28;20780;-56
2023/05/25 04:16:17;;;;;;;13.10;7.50;;;;;;;;;;5073598;28;20207;-55
2023/05/25 04:18:43;;;;;;;11.37;7.87;;;;;;;;;;5073407;28;20203;-56
2023/05/25 04:21:09;;;;;;;12.03;7.90;;;;;;;;;;5073487;28;20191;-55
2023/05/25 04:23:35;;;;;;;11.87;7.53;;;;;;;;;;5073218;28;20765;-56
2023/05/25 04:26:02;;;;;;;8.80;6.77;;;;;;;;;;5073100;28;20196;-56
2023/05/25 04:28:28;;;;;;;11.07;7.03;;;;;;;;;;5073274;28;20202;-56
2023/05/25 04:30:58;;;;;;;9.17;6.87;;;;;;;;;;5073005;28;20223;-56
2023/05/25 04:33:28;;;;;;;12.73;7.33;;;;;;;;;;5073243;28;20208;-56
2023/05/25 04:35:57;;;;;;;11.27;7.67;;;;;;;;;;5073008;28;20290;-55
2023/05/25 04:38:24;;;;;;;11.60;8.47;;;;;;;;;;5073175;28;20192;-55
2023/05/25 04:40:50;;;;;;;10.73;8.13;;;;;;;;;;5072960;28;20566;-55
2023/05/25 04:43:19;;;;;;;11.80;7.57;;;;;;;;;;5073056;28;20203;-55
2023/05/25 04:45:45;;;;;;;11.13;7.57;;;;;;;;;;5072834;28;20231;-55
2023/05/25 04:48:13;;;;;;;12.43;7.87;;;;;;;;;;5072867;28;20206;-55
2023/05/25 04:50:39;;;;;;;9.87;7.27;;;;;;;;;;5072721;28;20227;-55
2023/05/25 04:53:05;;;;;;;8.40;7.20;;;;;;;;;;5072903;28;20198;-55
2023/05/25 04:55:31;;;;;;;11.10;6.83;;;;;;;;;;5072722;28;20207;-56
2023/05/25 04:57:57;;;;;;;9.50;6.70;;;;;;;;;;5072471;28;20698;-56
2023/05/25 05:00:23;;;;;;;12.03;7.53;;;;;;;;;;5072449;28;20199;-56
2023/05/25 05:02:50;;;;;;;12.23;6.90;;;;;;;;;;5072483;28;20203;-56
2023/05/25 05:05:17;;;;;;;14.27;7.53;;;;;;;;;;5072050;28;20593;-56
2023/05/25 05:07:43;;;;;;;9.77;6.47;;;;;;;;;;5072056;28;20203;-56
2023/05/25 05:10:10;;;;;;;10.40;5.90;;;;;;;;;;5071997;28;20673;-56
2023/05/25 05:12:36;;;;;;;12.17;6.83;;;;;;;;;;5072304;28;20676;-56
2023/05/25 05:15:02;;;;;;;8.23;5.93;;;;;;;;;;5071797;28;20551;-56
2023/05/25 05:17:29;;;;;;;11.67;6.60;;;;;;;;;;5071895;28;20222;-56
2023/05/25 05:19:55;;;;;;;12.80;6.53;;;;;;;;;;5071882;28;20577;-56
2023/05/25 05:22:22;;;;;;;9.23;5.93;;;;;;;;;;5071886;28;20251;-55
2023/05/25 05:24:48;;;;;;;12.83;7.00;;;;;;;;;;5071819;28;20249;-56
2023/05/25 05:27:15;;;;;;;12.40;6.63;;;;;;;;;;5072055;28;20192;-56
2023/05/25 05:29:41;;;;;;;9.37;5.73;;;;;;;;;;5071738;28;20191;-56
2023/05/25 05:32:07;;;;;;;9.23;6.03;;;;;;;;;;5071943;28;20219;-54
2023/05/25 05:34:33;;;;;;;9.33;5.80;;;;;;;;;;5071869;28;20713;-55
2023/05/25 05:36:59;;;;;;;9.77;5.70;;;;;;;;;;5071732;28;20199;-55
2023/05/25 05:39:27;;;;;;;12.80;7.03;;;;;;;;;;5071750;28;20195;-54
2023/05/25 05:41:53;;;;;;;9.93;5.80;;;;;;;;;;5071665;28;20188;-54
2023/05/25 05:44:20;;;;;;;8.93;5.73;;;;;;;;;;5071870;28;20659;-55
2023/05/25 05:46:46;;;;;;;11.43;5.87;;;;;;;;;;5071564;28;20604;-55
2023/05/25 05:49:12;;;;;;;9.33;5.87;;;;;;;;;;5071431;28;20349;-55
2023/05/25 05:51:38;;;;;;;10.43;5.93;;;;;;;;;;5071660;28;20306;-55
2023/05/25 05:54:04;;;;;;;10.73;5.93;;;;;;;;;;5071581;28;20623;-55
2023/05/25 05:56:31;;;;;;;10.37;5.93;;;;;;;;;;5071616;28;20195;-55
2023/05/25 05:58:57;;;;;;;11.03;5.87;;;;;;;;;;5071498;28;20700;-55
2023/05/25 06:01:24;;;;;;;8.27;4.90;;;;;;;;;;5071515;28;20678;-55
2023/05/25 06:03:53;;;;;;;9.27;5.47;;;;;;;;;;5071470;28;20243;-54
2023/05/25 06:06:19;;;;;;;7.67;5.70;;;;;;;;;;5071691;28;20203;-55
2023/05/25 06:08:45;;;;;;;11.13;5.70;;;;;;;;;;5071414;28;20207;-54
2023/05/25 06:11:11;;;;;;;8.27;5.77;;;;;;;;;;5071271;28;20577;-55
2023/05/25 06:13:38;;;;;;;10.90;6.60;;;;;;;;;;5071489;28;20199;-55
2023/05/25 06:16:05;;;;;;;9.37;5.50;;;;;;;;;;5071460;28;20206;-55
2023/05/25 06:18:31;;;;;;;8.07;5.23;;;;;;;;;;5071341;28;20199;-55
2023/05/25 06:20:56;;;;;;;10.13;5.80;;;;;;;;;;5071280;28;20654;-58
2023/05/25 06:23:22;;;;;;;7.93;5.30;;;;;;;;;;5071251;28;20307;-56
2023/05/25 06:25:52;;;;;;;8.00;5.50;;;;;;;;;;5071702;28;20256;-55
2023/05/25 06:28:18;;;;;;;7.63;5.20;;;;;;;;;;5075322;28;20207;-55
2023/05/25 06:30:45;;;;;;;7.83;5.30;;;;;;;;;;5075243;28;20231;-55
2023/05/25 06:33:11;;;;;;;11.27;5.10;;;;;;;;;;5075364;28;20198;-55
2023/05/25 06:35:37;;;;;;;8.67;5.90;;;;;;;;;;5075142;28;20188;-55
2023/05/25 06:38:03;;;;;;;10.57;5.80;;;;;;;;;;5075294;28;20274;-55
2023/05/25 06:40:29;;;;;;;10.63;6.27;;;;;;;;;;5075239;28;20243;-55
2023/05/25 06:42:55;;;;;;;10.27;6.07;;;;;;;;;;5075267;28;20283;-54
2023/05/25 06:45:21;;;;;;;10.63;5.60;;;;;;;;;;5075232;28;20654;-55
2023/05/25 06:47:48;;;;;;;7.57;5.50;;;;;;;;;;5075200;28;20231;-54
2023/05/25 06:50:15;;;;;;;7.57;4.77;;;;;;;;;;5074995;28;20223;-54
2023/05/25 06:52:41;;;;;;;8.63;5.53;;;;;;;;;;5075025;28;20204;-54
2023/05/25 06:55:08;;;;;;;9.73;5.40;;;;;;;;;;5074897;28;20199;-55
2023/05/25 06:57:34;;;;;;;10.03;5.20;;;;;;;;;;5075159;28;20195;-54
2023/05/25 07:00:00;;;;;;;9.27;5.10;;;;;;;;;;5074890;28;20217;-54
2023/05/25 07:02:26;;;;;;;7.87;4.80;;;;;;;;;;5074983;28;20230;-54
2023/05/25 07:04:54;;;;;;;10.40;4.93;;;;;;;;;;5074410;28;20604;-54
2023/05/25 07:07:21;;;;;;;12.20;5.00;;;;;;;;;;5074745;28;20623;-55
2023/05/25 07:09:47;;;;;;;7.37;4.63;;;;;;;;;;5074547;28;20212;-55
2023/05/25 07:12:13;;;;;;;10.07;4.20;;;;;;;;;;5074305;28;20219;-55
2023/05/25 07:14:39;;;;;;;8.80;4.47;;;;;;;;;;5074498;28;20196;-55
2023/05/25 07:17:05;;;;;;;8.00;4.47;;;;;;;;;;5074461;28;20230;-54
2023/05/25 07:19:31;;;;;;;8.33;4.10;;;;;;;;;;5074229;28;20200;-55
2023/05/25 07:21:59;;;;;;;6.37;4.30;;;;;;;;;;5074293;28;20198;-55
2023/05/25 07:24:25;;;;;;;6.70;3.93;;;;;;;;;;5073935;28;20796;-55
2023/05/25 07:26:51;;;;;;;6.67;4.77;;;;;;;;;;5074293;28;20203;-55
2023/05/25 07:29:17;;;;;;;9.70;4.30;;;;;;;;;;5074180;28;20596;-56
2023/05/25 07:31:43;;;;;;;10.43;5.27;;;;;;;;;;5074052;28;20230;-54
2023/05/25 07:34:09;;;;;;;6.87;4.40;;;;;;;;;;5073962;28;20196;-54
2023/05/25 07:36:35;;;;;;;8.27;4.40;;;;;;;;;;5074035;28;20569;-54
2023/05/25 07:39:02;;;;;;;6.30;4.00;;;;;;;;;;5072486;28;20252;-54
2023/05/25 07:41:28;;;;;;;9.67;4.00;;;;;;;;;;5074070;28;20196;-54
2023/05/25 07:43:55;;;;;;;5.70;4.20;;;;;;;;;;5073789;28;20214;-54
2023/05/25 07:46:23;;;;;;;6.53;4.00;;;;;;;;;;5073901;28;20249;-55
2023/05/25 07:48:49;;;;;;;9.20;4.63;;;;;;;;;;5073749;28;20684;-54
2023/05/25 07:51:15;;;;;;;8.27;4.27;;;;;;;;;;5073605;28;20215;-55
2023/05/25 07:53:41;;;;;;;6.93;3.77;;;;;;;;;;5073680;28;20207;-55
2023/05/25 07:56:09;;;;;;;5.20;3.57;;;;;;;;;;5073702;28;20614;-55
2023/05/25 07:58:35;;;;;;;6.47;3.93;;;;;;;;;;5073702;28;20203;-55
2023/05/25 08:01:02;;;;;;;8.10;4.23;;;;;;;;;;5073540;28;20202;-55
2023/05/25 08:03:28;;;;;;;5.37;3.60;;;;;;;;;;5073406;28;20643;-56
2023/05/25 08:05:54;;;;;;;7.40;3.67;;;;;;;;;;5073571;28;20229;-54
2023/05/25 08:08:20;;;;;;;5.47;4.03;;;;;;;;;;5073503;28;20239;-55
2023/05/25 08:10:46;;;;;;;5.83;3.70;;;;;;;;;;5073293;28;20797;-55
2023/05/25 08:13:13;;;;;;;7.20;4.03;;;;;;;;;;5073325;28;20590;-54
2023/05/25 08:15:39;;;;;;;5.73;3.20;;;;;;;;;;5073286;28;20210;-54
2023/05/25 08:18:05;;;;;;;7.70;3.27;;;;;;;;;;5073300;28;20282;-55
2023/05/25 08:20:31;;;;;;;7.17;3.87;;;;;;;;;;5073173;28;20291;-55
2023/05/25 08:22:58;;;;;;;6.80;3.60;;;;;;;;;;5073098;28;20575;-54
2023/05/25 08:25:24;;;;;;;8.07;3.70;;;;;;;;;;5073151;28;20207;-55
2023/05/25 08:27:50;;;;;;;8.63;3.73;;;;;;;;;;5073275;28;20195;-54
2023/05/25 08:30:17;;;;;;;6.17;3.23;;;;;;;;;;5072898;28;20570;-54
2023/05/25 08:32:43;;;;;;;6.73;3.43;;;;;;;;;;5073050;28;20204;-55
2023/05/25 08:35:12;;;;;;;8.07;3.43;;;;;;;;;;5072872;28;20191;-55
2023/05/25 08:37:38;;;;;;;6.43;3.43;;;;;;;;;;5072886;28;20199;-54
2023/05/25 08:40:06;;;;;;;6.93;3.20;;;;;;;;;;5072793;28;20277;-55
2023/05/25 08:42:32;;;;;;;6.47;3.20;;;;;;;;;;5072808;28;20475;-55
2023/05/25 08:44:58;;;;;;;6.43;3.77;;;;;;;;;;5072719;28;20253;-55
2023/05/25 08:47:29;;;;;;;4.53;2.83;;;;;;;;;;5072611;28;20241;-55
2023/05/25 08:49:55;;;;;;;7.73;3.40;;;;;;;;;;5072277;28;20200;-55
2023/05/25 08:52:23;;;;;;;8.20;3.40;;;;;;;;;;5072490;28;20227;-55
2023/05/25 08:54:50;;;;;;;5.27;3.30;;;;;;;;;;5072684;28;20572;-55
2023/05/25 08:57:18;;;;;;;5.20;3.10;;;;;;;;;;5072366;28;20286;-55
2023/05/25 08:59:47;;;;;;;5.77;2.87;;;;;;;;;;5072499;28;20199;-55
2023/05/25 09:02:18;;;;;;;5.80;3.40;;;;;;;;;;5072368;28;20286;-55
2023/05/25 09:04:46;;;;;;;4.73;2.73;;;;;;;;;;5072252;28;20265;-54
2023/05/25 09:07:12;;;;;;;5.10;2.93;;;;;;;;;;5072218;28;20195;-53
2023/05/25 09:09:39;;;;;;;6.13;3.13;;;;;;;;;;5072295;28;20206;-53
2023/05/25 09:12:05;;;;;;;7.37;3.47;;;;;;;;;;5072128;28;20693;-56
2023/05/25 09:14:32;;;;;;;7.30;2.70;;;;;;;;;;5072061;28;20206;-54
2023/05/25 09:16:58;;;;;;;6.00;3.33;;;;;;;;;;5071973;28;20282;-54
2023/05/25 09:19:24;;;;;;;5.40;3.00;;;;;;;;;;5072000;28;20294;-54
2023/05/25 09:21:52;;;;;;;4.73;3.03;;;;;;;;;;5072174;28;20192;-54
2023/05/25 09:24:18;;;;;;;7.40;3.10;;;;;;;;;;5071846;28;20327;-54
2023/05/25 09:26:47;;;;;;;6.10;2.60;;;;;;;;;;5072026;28;20195;-54
2023/05/25 09:29:15;;;;;;;6.73;3.10;;;;;;;;;;5071850;28;20207;-53
2023/05/25 09:31:41;;;;;;;4.47;2.93;;;;;;;;;;5071877;28;20285;-54
2023/05/25 09:34:10;;;;;;;5.87;3.37;;;;;;;;;;5071925;28;20631;-54
2023/05/25 09:36:39;;;;;;;5.30;2.90;;;;;;;;;;5071561;28;20539;-54
2023/05/25 09:39:07;;;;;;;6.67;3.50;;;;;;;;;;5071675;28;20223;-54
2023/05/25 09:41:33;;;;;;;5.37;2.87;;;;;;;;;;5071963;28;20214;-54
2023/05/25 09:44:00;;;;;;;6.27;2.73;;;;;;;;;;5071726;28;20196;-54
2023/05/25 09:46:27;;;;;;;6.67;3.30;;;;;;;;;;5071406;28;20204;-55
2023/05/25 09:48:53;;;;;;;7.53;2.83;;;;;;;;;;5071774;28;20234;-55
2023/05/25 09:51:20;;;;;;;6.07;3.17;;;;;;;;;;5071594;28;20219;-55
2023/05/25 09:53:46;;;;;;;5.73;2.93;;;;;;;;;;5071545;28;20279;-54
2023/05/25 09:56:14;;;;;;;4.33;2.70;;;;;;;;;;5071550;28;20693;-54
2023/05/25 09:58:40;;;;;;;5.50;2.77;;;;;;;;;;5071549;28;20208;-55
2023/05/25 10:01:06;;;;;;;4.37;2.80;;;;;;;;;;5070824;28;20658;-54
2023/05/25 10:03:32;;;;;;;4.67;2.87;;;;;;;;;;5071499;28;20198;-54
2023/05/25 10:05:59;;;;;;;4.40;2.63;;;;;;;;;;5071524;28;20200;-54
2023/05/25 10:08:25;;;;;;;6.57;3.03;;;;;;;;;;5071275;28;20191;-55
2023/05/25 10:10:51;;;;;;;5.03;2.90;;;;;;;;;;5071580;28;20223;-54
2023/05/25 10:13:20;;;;;;;5.47;3.30;;;;;;;;;;5071393;28;20206;-55
2023/05/25 10:15:47;;;;;;;4.43;2.70;;;;;;;;;;5071448;28;20283;-54
2023/05/25 10:18:15;;;;;;;4.07;2.37;;;;;;;;;;5071301;28;20227;-54
2023/05/25 10:20:41;;;;;;;4.57;3.00;;;;;;;;;;5071527;28;20218;-54
2023/05/25 10:23:10;;;;;;;5.47;3.13;;;;;;;;;;5071129;28;20239;-55
2023/05/25 10:25:38;;;;;;;5.13;2.60;;;;;;;;;;5071380;28;20657;-55
2023/05/25 10:28:07;;;;;;;4.90;3.10;;;;;;;;;;5071553;28;20191;-54
2023/05/25 10:30:35;;;;;;;7.27;3.13;;;;;;;;;;5071357;28;20226;-54
2023/05/25 10:33:02;;;;;;;4.23;3.00;;;;;;;;;;5071231;28;20212;-53
2023/05/25 10:35:29;;;;;;;5.50;2.90;;;;;;;;;;5071110;28;20193;-54
2023/05/25 10:37:56;;;;;;;6.57;2.93;;;;;;;;;;5071215;28;20227;-53
2023/05/25 10:40:22;;;;;;;5.10;2.63;;;;;;;;;;5071308;28;20201;-55
2023/05/25 10:42:50;;;;;;;6.30;3.40;;;;;;;;;;5071318;28;20198;-55
2023/05/25 10:45:16;;;;;;;5.00;2.90;;;;;;;;;;5071162;28;20589;-54
2023/05/25 10:47:45;;;;;;;5.97;3.33;;;;;;;;;;5071116;28;20224;-54
2023/05/25 10:50:18;;;;;;;4.77;3.17;;;;;;;;;;5071034;28;20225;-54
2023/05/25 10:52:44;;;;;;;5.00;2.90;;;;;;;;;;5071061;28;20221;-54
2023/05/25 10:55:11;;;;;;;5.57;2.90;;;;;;;;;;5070954;28;20252;-55
2023/05/25 10:57:37;;;;;;;6.30;3.10;;;;;;;;;;5071288;28;20228;-54
2023/05/25 11:00:05;;;;;;;5.10;3.30;;;;;;;;;;5071105;28;20201;-55
2023/05/25 11:02:47;;;;;;;7.03;3.47;;;;;;;;;;5070902;28;20658;-55
2023/05/25 11:05:28;;;;;;;6.20;2.97;;;;;;;;;;5070786;28;20397;-55
2023/05/25 11:07:55;;;;;;;7.70;4.10;;;;;;;;;;5068360;28;20209;-54
2023/05/25 11:10:36;;;;;;;9.37;3.53;;;;;;;;;;5070920;28;20206;-54
2023/05/25 11:13:17;;;;;;;5.67;2.80;;;;;;;;;;5072927;28;20205;-54
2023/05/25 11:15:43;;;;;;;5.63;2.73;;;;;;;;;;5074291;28;20194;-55
2023/05/25 11:18:14;;;;;;;10.10;3.10;;;;;;;;;;5074409;28;20731;-54
2023/05/25 11:20:40;;;;;;;6.20;3.60;;;;;;;;;;5074472;28;20276;-54
2023/05/25 11:23:21;;;;;;;4.03;3.10;;;;;;;;;;5074427;28;20246;-55
2023/05/25 11:25:48;;;;;;;8.37;3.90;;;;;;;;;;5074360;28;20195;-55
2023/05/25 11:28:14;;;;;;;9.43;3.80;;;;;;;;;;5073968;28;20227;-54
2023/05/25 11:30:41;;;;;;;6.87;3.40;;;;;;;;;;5074033;28;20262;-55
2023/05/25 11:33:07;;;;;;;7.73;3.53;;;;;;;;;;5074255;28;20204;-55
2023/05/25 11:35:37;;;;;;;7.70;3.70;;;;;;;;;;5074132;28;20215;-55
2023/05/25 11:38:05;;;;;;;11.60;4.53;;;;;;;;;;5074062;28;20617;-54
2023/05/25 11:40:31;;;;;;;6.70;4.20;;;;;;;;;;5067025;28;20231;-54
2023/05/25 11:42:59;;;;;;;7.40;4.27;;;;;;;;;;5070254;28;20797;-54
2023/05/25 11:45:27;;;;;;;10.43;4.30;;;;;;;;;;5073881;28;20211;-55
2023/05/25 11:47:53;;;;;;;9.73;4.83;;;;;;;;;;5073531;28;20195;-54
2023/05/25 11:50:20;;;;;;;12.80;5.10;;;;;;;;;;5073599;28;20203;-53
2023/05/25 11:52:46;;;;;;;12.27;4.90;;;;;;;;;;5073499;28;20238;-54
2023/05/25 11:55:13;;;;;;;8.60;4.90;;;;;;;;;;5073534;28;20205;-54
2023/05/25 11:57:39;;;;;;;10.33;5.00;;;;;;;;;;5073490;28;20229;-54
2023/05/25 12:00:10;;;;;;;10.53;4.83;;;;;;;;;;5073150;28;20195;-54
2023/05/25 12:02:37;;;;;;;11.13;5.23;;;;;;;;;;5073255;28;20204;-54
2023/05/25 12:05:03;;;;;;;11.80;5.00;;;;;;;;;;5073387;28;20624;-54
2023/05/25 12:07:30;;;;;;;11.30;4.80;;;;;;;;;;5073195;28;20200;-54
2023/05/25 12:10:06;;;;;;;12.03;4.77;;;;;;;;;;5073057;28;20566;-54
2023/05/25 12:12:37;;;;;;;11.83;5.30;;;;;;;;;;5071008;28;20320;-53
2023/05/25 12:15:03;;;;;;;10.80;4.80;;;;;;;;;;5071795;28;20237;-55
2023/05/25 12:17:30;;;;;;;9.30;4.33;;;;;;;;;;5073164;28;20249;-56
2023/05/25 12:19:56;;;;;;;10.37;4.47;;;;;;;;;;5073317;28;20566;-56
2023/05/25 12:22:22;;;;;;;11.63;4.73;;;;;;;;;;5072745;28;20768;-56
2023/05/25 12:24:48;;;;;;;12.00;5.17;;;;;;;;;;5072286;28;20249;-56
2023/05/25 12:27:18;;;;;;;12.50;4.63;;;;;;;;;;5073050;28;20249;-56
2023/05/25 12:29:46;;;;;;;12.53;4.53;;;;;;;;;;5073401;28;20661;-56
2023/05/25 12:32:11;;;;;;;16.63;5.13;;;;;;;;;;5072897;28;20593;-56
2023/05/25 12:34:39;;;;;;;11.97;4.70;;;;;;;;;;5072938;28;20196;-56
2023/05/25 12:37:05;;;;;;;12.50;4.30;;;;;;;;;;5072738;28;20622;-56
2023/05/25 12:39:33;;;;;;;8.57;4.10;;;;;;;;;;5072972;28;20191;-56
2023/05/25 12:42:01;;;;;;;12.37;4.83;;;;;;;;;;5072785;28;20620;-56
2023/05/25 12:44:30;;;;;;;12.93;4.87;;;;;;;;;;5072585;28;20195;-56
2023/05/25 12:46:56;;;;;;;11.83;4.47;;;;;;;;;;5072486;28;20203;-56
2023/05/25 12:49:23;;;;;;;11.87;4.70;;;;;;;;;;5072761;28;20202;-56
2023/05/25 12:51:51;;;;;;;12.33;4.60;;;;;;;;;;5072666;28;20625;-57
2023/05/25 12:54:31;;;;;;;12.53;4.90;;;;;;;;;;5072667;28;20235;-56
2023/05/25 12:56:57;;;;;;;9.13;3.87;;;;;;;;;;5072605;28;20256;-54
2023/05/25 12:59:23;;;;;;;12.40;4.63;;;;;;;;;;5072349;28;20204;-55
2023/05/25 13:01:50;;;;;;;13.77;4.60;;;;;;;;;;5072564;28;20223;-55
2023/05/25 13:04:16;;;;;;;13.43;4.73;;;;;;;;;;5072267;28;20211;-55
2023/05/25 13:06:42;;;;;;;12.60;4.60;;;;;;;;;;5072466;28;20200;-55
2023/05/25 13:09:09;;;;;;;12.73;4.53;;;;;;;;;;5072269;28;20226;-55
2023/05/25 13:11:35;;;;;;;9.07;3.97;;;;;;;;;;5072304;28;20230;-55
2023/05/25 13:14:01;;;;;;;11.70;4.50;;;;;;;;;;5072388;28;20359;-55
2023/05/25 13:16:28;;;;;;;13.90;4.40;;;;;;;;;;5072133;28;20299;-55
2023/05/25 13:18:54;;;;;;;13.57;4.33;;;;;;;;;;5072183;28;20688;-55
2023/05/25 13:21:20;;;;;;;10.60;4.00;;;;;;;;;;5072313;28;20199;-55
2023/05/25 13:23:46;;;;;;;10.93;4.23;;;;;;;;;;5071927;28;20285;-55
2023/05/25 13:26:14;;;;;;;10.43;4.20;;;;;;;;;;5072244;28;20198;-55
2023/05/25 13:28:40;;;;;;;15.27;4.77;;;;;;;;;;5072048;28;20195;-55
2023/05/25 13:31:06;;;;;;;11.17;4.63;;;;;;;;;;5072262;28;20258;-55
2023/05/25 13:33:32;;;;;;;11.27;4.40;;;;;;;;;;5072118;28;20625;-55
2023/05/25 13:35:58;;;;;;;12.27;5.30;;;;;;;;;;5072057;28;20203;-55
2023/05/25 13:38:24;;;;;;;10.67;4.10;;;;;;;;;;5071857;28;20541;-55
2023/05/25 13:40:50;;;;;;;8.10;3.67;;;;;;;;;;5072178;28;20249;-56
2023/05/25 13:43:18;;;;;;;8.80;3.83;;;;;;;;;;5071878;28;20282;-55
2023/05/25 13:45:44;;;;;;;13.13;4.53;;;;;;;;;;5071792;28;20205;-55
2023/05/25 13:48:10;;;;;;;14.20;4.87;;;;;;;;;;5071848;28;20204;-55
2023/05/25 13:50:36;;;;;;;12.30;4.50;;;;;;;;;;5071848;28;20252;-57
2023/05/25 13:53:02;;;;;;;12.67;4.90;;;;;;;;;;5071886;28;20203;-55
2023/05/25 13:55:28;;;;;;;13.53;5.07;;;;;;;;;;5071703;28;20200;-55
2023/05/25 13:57:53;;;;;;;13.93;5.00;;;;;;;;;;5071935;28;20200;-55
2023/05/25 14:00:21;;;;;;;12.63;5.07;;;;;;;;;;5071918;28;20692;-56
2023/05/25 14:02:47;;;;;;;14.47;4.60;;;;;;;;;;5071653;28;20689;-56
2023/05/25 14:05:13;;;;;;;9.83;4.50;;;;;;;;;;5071705;28;20240;-55
2023/05/25 14:07:40;;;;;;;10.13;4.30;;;;;;;;;;5071269;28;20227;-55
2023/05/25 14:10:06;;;;;;;13.47;4.63;;;;;;;;;;5071560;28;20233;-55
2023/05/25 14:12:32;;;;;;;16.93;5.33;;;;;;;;;;5071248;28;20231;-55
2023/05/25 14:14:58;;;;;;;10.93;4.10;;;;;;;;;;5071392;28;20208;-56
2023/05/25 14:17:25;;;;;;;16.43;4.63;;;;;;;;;;5071305;28;20200;-54
2023/05/25 14:19:51;;;;;;;11.53;4.33;;;;;;;;;;5071398;28;20207;-55
2023/05/25 14:22:18;;;;;;;12.20;4.57;;;;;;;;;;5071354;28;20199;-55
2023/05/25 14:24:44;;;;;;;11.77;4.40;;;;;;;;;;5071508;28;20204;-54
2023/05/25 14:27:10;;;;;;;9.90;4.40;;;;;;;;;;5071383;28;20209;-54
2023/05/25 14:29:36;;;;;;;11.70;4.93;;;;;;;;;;5071505;28;20220;-54
2023/05/25 14:32:02;;;;;;;11.50;4.67;;;;;;;;;;5071464;28;20310;-57
2023/05/25 14:34:29;;;;;;;13.87;4.67;;;;;;;;;;5071427;28;20209;-54